Time;durP1;ratioP1;P1;durP2;ratioP2;P2;SDS_P1;SDS_P2;PMS_P1;PMS_P2;Temp;Humidity;BMP_temperature;BMP_pressure;BME280_temperature;BME280_humidity;BME280_pressure;Samples;Min_cycle;Max_cycle;Signal;HPM_P1;HPM_P2
2022/05/24 00:01:15;;;;;;;8.43;4.17;;;;;;;9.36;100.00;100362.77;1651676;86;21039;-87
2022/05/24 00:03:44;;;;;;;8.28;3.98;;;;;;;9.36;100.00;100366.67;1667871;85;20967;-89
2022/05/24 00:06:13;;;;;;;5.87;3.87;;;;;;;9.31;100.00;100371.72;1669170;85;21639;-88
2022/05/24 00:08:42;;;;;;;4.20;3.77;;;;;;;9.22;100.00;100369.80;1669403;85;21531;-86
2022/05/24 00:11:12;;;;;;;4.80;3.52;;;;;;;9.16;100.00;100371.55;1669139;85;21052;-87
2022/05/24 00:13:40;;;;;;;11.90;4.55;;;;;;;9.08;100.00;100391.60;1669456;85;22048;-87
2022/05/24 00:16:07;;;;;;;7.87;4.20;;;;;;;8.90;100.00;100383.34;1669139;85;21461;-86
2022/05/24 00:18:35;;;;;;;5.47;4.37;;;;;;;8.80;100.00;100383.67;1669274;85;21050;-88
2022/05/24 00:21:05;;;;;;;8.33;4.67;;;;;;;8.73;100.00;100371.58;1668710;86;21074;-90
2022/05/24 00:23:34;;;;;;;7.65;4.85;;;;;;;8.74;100.00;100378.89;1668094;85;21141;-87
2022/05/24 00:26:06;;;;;;;7.97;4.60;;;;;;;8.76;100.00;100381.77;1667947;85;21695;-88
2022/05/24 00:28:35;;;;;;;5.47;4.10;;;;;;;8.79;100.00;100385.42;1671460;84;21947;-88
2022/05/24 00:31:03;;;;;;;4.87;4.37;;;;;;;8.81;100.00;100377.06;1674236;84;21050;-86
2022/05/24 00:33:33;;;;;;;5.05;4.10;;;;;;;8.84;100.00;100385.09;1674446;84;21138;-87
2022/05/24 00:36:00;;;;;;;4.53;4.05;;;;;;;8.86;100.00;100381.08;1674016;84;21051;-87
2022/05/24 00:38:36;;;;;;;5.25;4.35;;;;;;;8.87;100.00;100381.45;1674442;84;21449;-86
2022/05/24 00:41:30;;;;;;;6.60;4.37;;;;;;;8.88;100.00;100377.91;1671046;85;21247;-89
2022/05/24 00:44:34;;;;;;;6.60;4.55;;;;;;;8.88;100.00;100383.95;1674974;84;21524;-89
2022/05/24 00:47:11;;;;;;;6.22;4.42;;;;;;;8.90;100.00;100376.86;1674484;84;21042;-89
2022/05/24 00:49:45;;;;;;;5.40;4.30;;;;;;;8.93;100.00;100376.64;1671758;84;21087;-86
2022/05/24 00:52:29;;;;;;;4.97;4.42;;;;;;;8.96;100.00;100377.73;1654104;85;21083;-87
2022/05/24 00:54:59;;;;;;;5.47;4.08;;;;;;;8.96;100.00;100375.14;1671502;85;21369;-88
2022/05/24 00:57:46;;;;;;;4.53;3.90;;;;;;;8.96;100.00;100378.19;1674240;84;21141;-86
2022/05/24 01:00:21;;;;;;;4.90;4.17;;;;;;;8.94;100.00;100377.47;1671248;85;21058;-86
2022/05/24 01:02:50;;;;;;;5.28;4.55;;;;;;;8.93;100.00;100370.64;1674077;84;21070;-83
2022/05/24 01:05:24;;;;;;;8.23;4.25;;;;;;;8.91;100.00;100368.62;1674746;85;21038;-84
2022/05/24 01:07:51;;;;;;;5.75;4.60;;;;;;;8.89;100.00;100364.84;1674715;84;21377;-85
2022/05/24 01:10:35;;;;;;;5.35;4.53;;;;;;;8.91;100.00;100368.62;1654709;85;21114;-84
2022/05/24 01:13:14;;;;;;;4.85;4.28;;;;;;;8.88;100.00;100363.17;1674401;84;21606;-86
2022/05/24 01:15:45;;;;;;;5.92;4.28;;;;;;;8.81;100.00;100367.97;1674349;85;21031;-86
2022/05/24 01:18:23;;;;;;;6.85;4.60;;;;;;;8.77;100.00;100361.33;1674258;84;21623;-86
2022/05/24 01:20:50;;;;;;;5.30;4.12;;;;;;;8.74;100.00;100369.35;1669331;84;21638;-86
2022/05/24 01:23:47;;;;;;;6.42;4.67;;;;;;;8.68;100.00;100366.72;1671589;84;21043;-87
2022/05/24 01:26:45;;;;;;;5.70;4.40;;;;;;;8.65;100.00;100372.11;1674371;85;21039;-88
2022/05/24 01:29:13;;;;;;;6.20;4.75;;;;;;;8.63;100.00;100370.57;1674065;84;20999;-87
2022/05/24 01:37:13;;;;;;;5.28;4.15;;;;;;;8.57;100.00;100373.61;1674706;84;21079;-85
2022/05/24 01:39:44;;;;;;;5.05;4.42;;;;;;;8.53;100.00;100376.41;1673951;84;21066;-86
2022/05/24 01:42:16;;;;;;;6.50;4.92;;;;;;;8.51;100.00;100382.65;1674805;84;21102;-87
2022/05/24 01:45:13;;;;;;;6.72;4.60;;;;;;;8.44;100.00;100390.02;1674403;84;21022;-86
2022/05/24 01:47:46;;;;;;;5.12;4.62;;;;;;;8.34;100.00;100382.51;1672213;85;21446;-88
2022/05/24 01:50:17;;;;;;;5.33;4.50;;;;;;;8.23;100.00;100383.25;1674533;85;21066;-87
2022/05/24 01:52:53;;;;;;;5.45;4.42;;;;;;;8.18;100.00;100384.87;1620860;85;21165;-89
2022/05/24 01:55:30;;;;;;;5.10;4.47;;;;;;;8.16;100.00;100391.92;1602443;88;21081;-86
2022/05/24 01:58:02;;;;;;;5.42;4.53;;;;;;;8.15;100.00;100392.03;1604197;87;21523;-89
2022/05/24 02:00:33;;;;;;;5.90;4.72;;;;;;;8.16;100.00;100399.70;1602764;88;21204;-88
2022/05/24 02:03:03;;;;;;;6.72;4.50;;;;;;;8.16;100.00;100398.41;1603800;89;21014;-87
2022/05/24 02:05:37;;;;;;;6.40;5.03;;;;;;;8.14;100.00;100399.45;1603843;88;21143;-86
2022/05/24 02:08:08;;;;;;;5.12;4.12;;;;;;;8.09;100.00;100403.64;1567503;89;21561;-88
2022/05/24 02:10:44;;;;;;;5.58;3.98;;;;;;;8.04;100.00;100406.55;1604084;88;21159;-87
2022/05/24 02:13:17;;;;;;;5.42;4.22;;;;;;;8.01;100.00;100411.12;1601596;88;21290;-88
2022/05/24 02:15:47;;;;;;;10.45;4.15;;;;;;;8.00;100.00;100414.64;1564176;90;21068;-87
2022/05/24 02:18:18;;;;;;;5.85;4.75;;;;;;;8.00;100.00;100412.05;1603558;88;21068;-89
2022/05/24 02:20:48;;;;;;;5.35;3.90;;;;;;;8.04;100.00;100413.52;1604628;88;21645;-86
2022/05/24 02:23:20;;;;;;;5.08;4.58;;;;;;;8.08;100.00;100412.36;1565926;89;21123;-86
2022/05/24 02:25:54;;;;;;;4.80;4.30;;;;;;;8.12;100.00;100409.94;1604010;87;21237;-88
2022/05/24 02:28:32;;;;;;;6.05;4.67;;;;;;;8.16;100.00;100407.96;1650301;84;21035;-87
2022/05/24 02:31:06;;;;;;;6.60;4.28;;;;;;;8.19;100.00;100409.03;1672453;84;21134;-87
2022/05/24 02:33:35;;;;;;;7.62;4.42;;;;;;;8.20;100.00;100417.17;1673654;85;21051;-87
2022/05/24 02:36:05;;;;;;;5.83;4.80;;;;;;;8.21;100.00;100422.73;1674121;84;21035;-87
2022/05/24 02:38:34;;;;;;;5.10;4.50;;;;;;;8.25;100.00;100418.16;1674593;85;22116;-88
2022/05/24 02:43:47;;;;;;;4.67;4.28;;;;;;;8.25;100.00;100420.30;1674646;84;21081;-86
2022/05/24 02:46:17;;;;;;;5.55;4.90;;;;;;;8.25;100.00;100423.34;1674711;84;21019;-88
2022/05/24 02:48:45;;;;;;;7.08;4.90;;;;;;;8.24;100.00;100425.58;1644293;84;21093;-89
2022/05/24 02:51:14;;;;;;;7.65;4.80;;;;;;;8.30;100.00;100422.11;1674486;84;21148;-89
2022/05/24 02:53:45;;;;;;;5.58;4.97;;;;;;;8.37;100.00;100425.94;1674297;85;21023;-86
2022/05/24 02:56:14;;;;;;;8.08;5.75;;;;;;;8.46;100.00;100427.53;1674420;84;21082;-88
2022/05/24 02:58:42;;;;;;;10.30;6.67;;;;;;;8.52;100.00;100431.88;1674085;84;21142;-87
2022/05/24 03:01:25;;;;;;;11.00;9.70;;;;;;;8.58;100.00;100431.89;1674084;84;21034;-87
2022/05/24 03:03:55;;;;;;;13.22;11.85;;;;;;;8.59;100.00;100437.92;1674322;84;21172;-89
2022/05/24 03:06:25;;;;;;;14.95;12.25;;;;;;;8.57;100.00;100429.41;1673692;84;21588;-85
2022/05/24 03:14:26;;;;;;;21.15;13.70;;;;;;;8.65;100.00;100438.31;1674970;84;21788;-85
2022/05/24 03:16:56;;;;;;;18.85;13.25;;;;;;;8.72;100.00;100443.91;1673649;84;21259;-87
2022/05/24 03:19:24;;;;;;;19.77;13.30;;;;;;;8.78;100.00;100446.55;1674599;84;21006;-86
2022/05/24 03:21:51;;;;;;;15.55;12.25;;;;;;;8.85;100.00;100449.08;1674822;84;21050;-87
2022/05/24 03:24:19;;;;;;;17.02;11.20;;;;;;;8.92;100.00;100446.88;1674168;84;21058;-87
2022/05/24 03:26:48;;;;;;;15.53;10.45;;;;;;;8.99;100.00;100447.63;1673797;84;21513;-87
2022/05/24 03:29:15;;;;;;;12.73;10.08;;;;;;;9.08;100.00;100451.80;1672128;84;21255;-85
2022/05/24 03:31:43;;;;;;;14.47;8.90;;;;;;;9.14;100.00;100445.70;1668450;85;21474;-88
2022/05/24 03:34:10;;;;;;;12.25;7.78;;;;;;;9.21;100.00;100442.66;1668212;85;21043;-85
2022/05/24 03:36:38;;;;;;;8.80;6.75;;;;;;;9.27;100.00;100439.16;1668598;86;21067;-86
2022/05/24 03:39:07;;;;;;;9.33;6.62;;;;;;;9.34;100.00;100453.00;1668851;85;21070;-85
2022/05/24 03:41:35;;;;;;;7.87;5.97;;;;;;;9.38;100.00;100456.56;1668885;85;21108;-85
2022/05/24 03:44:02;;;;;;;8.25;6.03;;;;;;;9.45;100.00;100456.47;1668368;85;21181;-89
2022/05/24 03:46:32;;;;;;;7.67;5.95;;;;;;;9.52;100.00;100461.22;1668845;85;21662;-89
2022/05/24 03:48:59;;;;;;;7.55;6.40;;;;;;;9.57;100.00;100455.23;1668493;85;21112;-86
2022/05/24 03:51:26;;;;;;;8.80;5.92;;;;;;;9.62;100.00;100452.62;1669105;85;21031;-88
2022/05/24 03:53:55;;;;;;;6.62;5.92;;;;;;;9.67;100.00;100450.17;1668780;85;21913;-88
2022/05/24 03:56:25;;;;;;;6.37;5.78;;;;;;;9.74;100.00;100450.08;1668067;85;21050;-88
2022/05/24 03:58:53;;;;;;;8.93;6.50;;;;;;;9.85;100.00;100450.57;1650239;85;21527;-86
2022/05/24 04:01:20;;;;;;;9.15;7.00;;;;;;;9.98;100.00;100453.89;1650475;86;21038;-87
2022/05/24 04:03:48;;;;;;;8.23;7.00;;;;;;;10.16;100.00;100448.25;1650649;85;21037;-88
2022/05/24 04:06:15;;;;;;;7.95;7.03;;;;;;;10.35;100.00;100440.70;1651132;85;21144;-86
2022/05/24 04:08:45;;;;;;;8.68;6.55;;;;;;;10.55;100.00;100447.00;1650621;85;21034;-88
2022/05/24 04:11:13;;;;;;;7.62;6.80;;;;;;;10.72;100.00;100446.16;1650772;85;20997;-87
2022/05/24 04:13:42;;;;;;;7.60;6.85;;;;;;;10.87;100.00;100445.41;1651031;85;21014;-85
2022/05/24 04:16:10;;;;;;;7.12;6.42;;;;;;;11.00;100.00;100445.27;1650700;85;21130;-86
2022/05/24 04:18:37;;;;;;;10.20;7.20;;;;;;;11.13;100.00;100447.72;1650606;85;22831;-86
2022/05/24 04:21:04;;;;;;;7.33;6.42;;;;;;;11.25;100.00;100455.88;1650688;85;21070;-85
2022/05/24 04:23:31;;;;;;;6.58;5.85;;;;;;;11.34;100.00;100449.08;1651233;85;21124;-85
2022/05/24 04:25:58;;;;;;;8.28;6.10;;;;;;;11.43;100.00;100467.05;1650798;85;21041;-84
2022/05/24 04:28:25;;;;;;;7.78;6.00;;;;;;;11.52;100.00;100461.93;1651023;86;21097;-85
2022/05/24 04:30:53;;;;;;;7.05;6.35;;;;;;;11.62;100.00;100462.00;1677348;84;21263;-85
2022/05/24 04:33:21;;;;;;;6.85;6.15;;;;;;;11.68;100.00;100464.59;1680716;84;21069;-86
2022/05/24 04:35:51;;;;;;;7.17;6.03;;;;;;;11.74;100.00;100463.23;1679857;84;21061;-89
2022/05/24 04:38:18;;;;;;;6.03;5.42;;;;;;;11.79;100.00;100462.39;1678645;84;21090;-87
2022/05/24 04:43:18;;;;;;;6.53;5.85;;;;;;;11.96;100.00;100464.43;1654213;85;22003;-86
2022/05/24 04:45:46;;;;;;;5.85;5.00;;;;;;;12.12;100.00;100463.17;1680200;84;21038;-89
2022/05/24 04:48:57;;;;;;;8.45;5.10;;;;;;;12.27;100.00;100457.95;1680253;85;21050;-88
2022/05/24 04:51:24;;;;;;;5.22;4.72;;;;;;;12.42;100.00;100464.13;1680374;84;21599;-87
2022/05/24 04:53:51;;;;;;;6.83;4.90;;;;;;;12.50;100.00;100466.92;1680211;85;21018;-88
2022/05/24 04:56:18;;;;;;;6.42;5.08;;;;;;;12.57;100.00;100470.66;1680465;84;21531;-88
2022/05/24 04:58:45;;;;;;;6.03;5.30;;;;;;;12.61;100.00;100473.36;1680174;85;21093;-88
2022/05/24 05:01:14;;;;;;;6.92;5.28;;;;;;;12.67;100.00;100477.70;1680240;85;21026;-88
2022/05/24 05:03:43;;;;;;;7.35;5.60;;;;;;;12.77;100.00;100478.56;1680081;84;20990;-90
2022/05/24 05:06:10;;;;;;;8.73;5.25;;;;;;;12.87;100.00;100479.40;1680283;85;21061;-88
2022/05/24 05:08:39;;;;;;;6.10;5.33;;;;;;;12.92;100.00;100478.54;1679951;84;21199;-90
2022/05/24 05:11:08;;;;;;;11.88;5.17;;;;;;;12.97;100.00;100472.06;1682737;85;21524;-86
2022/05/24 05:13:37;;;;;;;7.50;5.12;;;;;;;13.09;100.00;100476.23;1683892;83;21639;-88
2022/05/24 05:16:05;;;;;;;4.83;4.33;;;;;;;13.18;100.00;100470.17;1684331;85;21070;-86
2022/05/24 05:18:32;;;;;;;11.18;4.87;;;;;;;13.31;100.00;100469.09;1687584;85;21198;-91
2022/05/24 05:21:00;;;;;;;6.92;4.47;;;;;;;13.47;100.00;100477.25;1680988;84;21568;-88
2022/05/24 05:23:27;;;;;;;5.42;3.95;;;;;;;13.64;100.00;100474.41;1679760;85;21006;-89
2022/05/24 05:25:54;;;;;;;6.65;4.08;;;;;;;13.86;100.00;100474.61;1678313;84;21444;-87
2022/05/24 05:28:21;;;;;;;8.40;4.75;;;;;;;14.10;100.00;100476.43;1679119;84;21042;-87
2022/05/24 05:33:36;;;;;;;6.33;4.67;;;;;;;14.42;100.00;100479.16;1660494;85;21127;-89
2022/05/24 05:36:04;;;;;;;7.42;4.22;;;;;;;14.61;100.00;100488.73;1660765;86;21043;-88
2022/05/24 05:38:33;;;;;;;7.55;4.45;;;;;;;14.77;100.00;100487.65;1660649;85;21062;-87
2022/05/24 05:41:00;;;;;;;7.50;4.65;;;;;;;14.97;100.00;100483.59;1660740;85;21011;-87
2022/05/24 05:43:28;;;;;;;5.72;4.28;;;;;;;15.21;97.27;100486.12;1660561;85;21045;-87
2022/05/24 05:45:59;;;;;;;7.97;5.20;;;;;;;15.45;95.30;100482.92;1660816;85;21246;-87
2022/05/24 05:48:28;;;;;;;5.22;4.60;;;;;;;15.65;94.17;100480.13;1685298;83;21075;-87
2022/05/24 05:50:56;;;;;;;4.85;4.28;;;;;;;15.80;93.20;100481.22;1688894;85;21110;-88
2022/05/24 05:53:23;;;;;;;5.08;4.30;;;;;;;15.93;93.35;100483.48;1688660;85;21154;-87
2022/05/24 05:55:52;;;;;;;5.87;4.35;;;;;;;16.03;89.43;100483.38;1688233;84;21466;-87
2022/05/24 05:58:19;;;;;;;6.75;4.17;;;;;;;16.12;88.48;100484.27;1688898;84;21267;-87
2022/05/24 06:00:48;;;;;;;7.35;4.72;;;;;;;16.22;82.46;100493.69;1661187;84;21560;-88
2022/05/24 06:03:17;;;;;;;4.58;4.03;;;;;;;16.23;75.81;100490.55;1684990;84;21064;-87
2022/05/24 06:05:47;;;;;;;9.05;4.25;;;;;;;16.19;79.28;100490.04;1696131;84;21042;-86
2022/05/24 06:08:14;;;;;;;4.12;3.72;;;;;;;16.23;76.95;100491.86;1705838;83;21650;-88
2022/05/24 06:10:43;;;;;;;4.80;3.45;;;;;;;16.30;77.85;100486.82;1705552;83;21097;-87
2022/05/24 06:13:10;;;;;;;15.20;4.10;;;;;;;16.34;76.18;100487.67;1690017;83;21078;-87
2022/05/24 06:15:39;;;;;;;5.20;3.37;;;;;;;16.40;74.06;100485.72;1687620;85;21083;-88
2022/05/24 06:18:07;;;;;;;5.15;3.50;;;;;;;16.44;73.91;100496.74;1688884;84;21046;-86
2022/05/24 06:20:34;;;;;;;6.20;4.28;;;;;;;16.52;72.77;100491.53;1688809;84;21098;-87
2022/05/24 06:23:01;;;;;;;8.00;3.67;;;;;;;16.62;70.86;100484.86;1688677;84;21080;-87
2022/05/24 06:25:31;;;;;;;25.77;4.50;;;;;;;16.77;69.59;100487.69;1687354;83;21092;-88
2022/05/24 06:27:59;;;;;;;4.42;3.25;;;;;;;16.92;67.88;100489.70;1663361;85;21078;-88
2022/05/24 06:30:27;;;;;;;9.65;4.47;;;;;;;17.06;63.71;100491.77;1684783;84;21298;-87
2022/05/24 06:32:55;;;;;;;4.47;3.58;;;;;;;17.20;63.22;100491.60;1683484;84;21102;-87
2022/05/24 06:35:27;;;;;;;8.48;3.70;;;;;;;17.32;63.98;100482.91;1675564;83;21143;-87
2022/05/24 06:37:54;;;;;;;;;;;;;;;17.43;63.20;100484.39;1661289;86;21102;-88
2022/05/24 06:40:22;;;;;;;4.05;3.20;;;;;;;17.52;59.47;100486.05;1659926;85;20196;-87
2022/05/24 06:42:49;;;;;;;5.72;3.25;;;;;;;17.55;54.92;100478.30;1678543;85;21684;-90
2022/05/24 06:45:19;;;;;;;3.17;2.80;;;;;;;17.52;52.75;100487.36;1677658;84;22276;-88
2022/05/24 06:47:47;;;;;;;4.65;3.33;;;;;;;17.43;47.48;100487.86;1679339;85;21248;-90
2022/05/24 06:50:15;;;;;;;3.98;3.17;;;;;;;17.35;53.09;100486.54;1679320;85;21110;-90
2022/05/24 06:52:45;;;;;;;4.40;3.30;;;;;;;17.40;53.64;100490.00;1679724;85;21035;-88
2022/05/24 06:55:13;;;;;;;4.72;2.72;;;;;;;17.50;51.97;100486.22;1677765;84;21071;-89
2022/05/24 06:57:42;;;;;;;5.80;2.95;;;;;;;17.60;50.02;100492.62;1698254;84;21686;-89
2022/05/24 07:03:02;;;;;;;3.10;2.80;;;;;;;17.57;48.28;100486.87;1681608;83;21038;-89
2022/05/24 07:05:32;;;;;;;5.65;3.35;;;;;;;17.59;49.80;100479.64;1703604;83;21659;-89
2022/05/24 07:08:00;;;;;;;8.68;3.37;;;;;;;17.71;51.42;100481.45;1703363;83;21117;-88
2022/05/24 07:10:31;;;;;;;3.65;3.10;;;;;;;17.79;49.66;100480.93;1703648;83;21018;-89
2022/05/24 07:13:04;;;;;;;3.05;2.85;;;;;;;17.85;49.14;100480.77;1682176;83;21983;-89
2022/05/24 07:15:33;;;;;;;2.90;2.60;;;;;;;17.91;51.74;100478.78;1679124;84;21117;-86
2022/05/24 07:18:01;;;;;;;5.35;2.95;;;;;;;18.07;51.97;100479.29;1703261;83;21505;-89
2022/05/24 07:20:33;;;;;;;5.22;2.90;;;;;;;18.22;50.45;100478.59;1703705;84;21086;-88
2022/05/24 07:23:17;;;;;;;3.80;3.30;;;;;;;18.33;51.65;100478.72;1676998;83;21458;-87
2022/05/24 07:25:47;;;;;;;5.55;3.10;;;;;;;18.39;52.82;100483.30;1677893;83;21281;-88
2022/05/24 07:28:16;;;;;;;5.90;3.00;;;;;;;18.44;51.07;100480.49;1677947;85;21091;-88
2022/05/24 07:30:49;;;;;;;6.25;2.90;;;;;;;18.58;48.61;100477.64;1678969;83;21040;-89
2022/05/24 07:33:17;;;;;;;3.33;3.02;;;;;;;18.71;48.24;100485.48;1675321;83;21519;-87
2022/05/24 07:35:46;;;;;;;5.05;3.02;;;;;;;18.73;48.56;100481.70;1670833;83;21101;-89
2022/05/24 07:38:14;;;;;;;5.80;3.42;;;;;;;18.63;47.33;100480.28;1703272;84;21300;-90
2022/05/24 07:46:19;;;;;;;5.15;3.00;;;;;;;18.33;44.90;100477.41;1672719;85;21564;-89
2022/05/24 07:48:46;;;;;;;6.15;3.35;;;;;;;18.35;43.76;100480.70;1654140;85;21021;-90
2022/05/24 07:51:13;;;;;;;3.75;3.08;;;;;;;18.35;45.89;100480.70;1629789;86;21358;-91
2022/05/24 07:53:42;;;;;;;4.42;3.70;;;;;;;18.41;44.90;100477.37;1617653;88;21080;-89
2022/05/24 07:56:09;;;;;;;4.92;2.80;;;;;;;18.49;45.06;100475.22;1616164;88;21128;-89
2022/05/24 07:58:36;;;;;;;4.45;3.55;;;;;;;18.55;46.22;100476.66;1630394;86;21704;-89
2022/05/24 08:01:08;;;;;;;3.83;3.40;;;;;;;18.67;47.68;100478.92;1643468;84;21108;-89
2022/05/24 08:03:36;;;;;;;4.08;3.60;;;;;;;18.75;49.41;100477.57;1651261;85;21128;-89
2022/05/24 08:06:04;;;;;;;5.30;3.92;;;;;;;18.83;45.51;100480.17;1690865;83;21007;-87
2022/05/24 08:08:32;;;;;;;6.22;3.50;;;;;;;18.90;46.42;100474.52;1703614;83;21011;-89
2022/05/24 08:10:59;;;;;;;7.25;3.37;;;;;;;19.04;43.76;100475.63;1702997;83;21266;-89
2022/05/24 08:13:28;;;;;;;6.47;3.25;;;;;;;19.11;44.61;100466.50;1702670;83;21011;-85
2022/05/24 08:15:56;;;;;;;4.70;3.50;;;;;;;19.20;44.21;100466.77;1703108;83;21716;-85
2022/05/24 08:18:25;;;;;;;6.12;3.75;;;;;;;19.18;41.62;100464.83;1703365;83;21011;-85
2022/05/24 08:20:54;;;;;;;6.12;3.22;;;;;;;19.19;46.15;100473.04;1696420;84;21733;-84
2022/05/24 08:23:24;;;;;;;6.80;3.72;;;;;;;19.26;43.89;100478.45;1681252;84;21059;-85
2022/05/24 08:25:52;;;;;;;4.67;2.65;;;;;;;19.34;43.45;100470.47;1695526;83;21606;-83
2022/05/24 08:28:19;;;;;;;2.75;2.55;;;;;;;19.47;44.31;100473.84;1703675;83;21270;-84
2022/05/24 08:30:47;;;;;;;4.87;3.40;;;;;;;19.61;42.97;100468.29;1703021;83;21093;-84
2022/05/24 08:33:15;;;;;;;4.90;3.40;;;;;;;19.52;43.67;100467.52;1690791;83;21113;-84
2022/05/24 08:39:24;;;;;;;5.40;3.00;;;;;;;19.27;44.19;100477.97;1677293;83;21062;-89
2022/05/24 08:42:14;;;;;;;2.83;2.52;;;;;;;19.16;40.54;100474.73;1678269;85;21963;-89
2022/05/24 08:50:15;;;;;;;2.95;2.37;;;;;;;18.78;40.79;100468.48;1683988;84;21552;-89
2022/05/24 08:52:55;;;;;;;2.83;2.62;;;;;;;18.88;40.96;100467.78;1684175;85;21053;-90
2022/05/24 08:55:26;;;;;;;3.45;2.42;;;;;;;19.02;40.95;100461.78;1682109;84;21098;-86
2022/05/24 08:57:59;;;;;;;3.17;2.60;;;;;;;19.19;44.50;100466.95;1683154;84;21030;-89
2022/05/24 09:00:42;;;;;;;3.30;2.72;;;;;;;19.32;42.26;100462.41;1673894;85;21046;-92
2022/05/24 09:03:10;;;;;;;5.17;3.05;;;;;;;19.47;44.09;100455.36;1650833;86;21546;-87
2022/05/24 09:05:41;;;;;;;3.30;2.70;;;;;;;19.65;42.20;100452.91;1691670;83;21090;-91
2022/05/24 09:08:44;;;;;;;4.35;3.08;;;;;;;19.90;41.15;100456.66;1664849;84;40059;-88
2022/05/24 09:11:24;;;;;;;5.57;3.33;;;;;;;20.15;46.75;100455.89;1681765;83;21066;-87
2022/05/24 09:14:10;;;;;;;3.70;3.10;;;;;;;20.31;40.50;100462.83;1696980;83;22035;-87
2022/05/24 09:16:57;;;;;;;4.25;3.10;;;;;;;20.36;39.67;100461.77;1696893;83;21082;-86
2022/05/24 09:19:30;;;;;;;3.62;2.80;;;;;;;20.37;37.82;100459.45;1694406;83;21066;-87
2022/05/24 09:21:57;;;;;;;3.25;2.40;;;;;;;20.43;40.29;100452.61;1652091;86;21233;-87
2022/05/24 09:24:41;;;;;;;3.72;2.67;;;;;;;20.56;40.54;100447.47;1679717;83;21152;-87
2022/05/24 09:27:28;;;;;;;4.10;2.80;;;;;;;20.78;41.92;100449.70;1683575;84;21041;-88
2022/05/24 09:30:27;;;;;;;4.65;2.80;;;;;;;21.06;38.65;100450.27;1673584;84;21146;-87
2022/05/24 09:33:23;;;;;;;5.25;2.90;;;;;;;21.27;39.18;100444.68;1618265;87;21544;-87
2022/05/24 09:35:57;;;;;;;3.50;2.42;;;;;;;21.54;38.08;100441.74;1592119;86;21262;-88
2022/05/24 09:38:39;;;;;;;3.10;2.75;;;;;;;21.51;35.56;100446.61;1615351;86;21097;-88
2022/05/24 09:41:18;;;;;;;3.50;2.47;;;;;;;21.27;35.22;100445.48;1650549;86;21242;-86
2022/05/24 09:44:06;;;;;;;3.42;2.62;;;;;;;21.15;36.65;100445.69;1647496;86;21044;-93
2022/05/24 09:46:36;;;;;;;4.00;2.60;;;;;;;21.21;35.58;100448.89;1631325;87;21224;-90
2022/05/24 09:49:31;;;;;;;3.08;2.52;;;;;;;21.19;36.31;100442.16;1649775;85;21196;-93
2022/05/24 09:52:14;;;;;;;3.17;2.47;;;;;;;21.16;34.61;100436.71;1638955;86;21622;-91
2022/05/24 09:54:55;;;;;;;2.95;2.75;;;;;;;21.22;37.17;100431.17;1629341;88;21105;-92
2022/05/24 09:57:27;;;;;;;3.50;2.35;;;;;;;21.15;37.13;100425.84;1649143;85;21215;-91
2022/05/24 10:00:09;;;;;;;3.02;2.72;;;;;;;21.33;38.11;100420.08;1649942;86;21081;-91
2022/05/24 10:02:39;;;;;;;3.65;2.80;;;;;;;21.54;35.45;100425.02;1648109;86;21178;-89
2022/05/24 10:05:22;;;;;;;5.25;2.98;;;;;;;21.66;38.07;100425.33;1649936;86;21062;-91
2022/05/24 10:08:02;;;;;;;3.95;3.40;;;;;;;21.61;34.03;100417.95;1650077;86;21061;-92
2022/05/24 10:10:37;;;;;;;4.50;3.33;;;;;;;21.47;38.62;100418.84;1647884;86;21073;-91
2022/05/24 10:13:18;;;;;;;4.35;3.35;;;;;;;21.22;33.85;100423.23;1641196;85;21942;-92
2022/05/24 10:16:10;;;;;;;5.05;2.75;;;;;;;20.87;35.72;100428.41;1646196;85;21534;-90
2022/05/24 10:18:52;;;;;;;6.97;3.70;;;;;;;20.73;41.03;100434.06;1648018;86;21594;-92
2022/05/24 10:21:37;;;;;;;;;;;;;;;20.88;37.99;100433.99;1645250;86;21074;-92
2022/05/24 10:24:31;;;;;;;4.30;3.33;;;;;;;21.09;37.59;100428.73;1639327;85;20778;-93
2022/05/24 10:27:13;;;;;;;3.55;3.00;;;;;;;21.20;35.51;100425.23;1639533;86;21148;-91
2022/05/24 10:29:58;;;;;;;7.62;3.30;;;;;;;21.32;35.73;100426.38;1637789;86;22882;-91
2022/05/24 10:39:31;;;;;;;5.50;3.58;;;;;;;21.54;37.22;100427.17;1671396;83;21290;-92
2022/05/24 10:42:29;;;;;;;4.47;3.87;;;;;;;21.59;35.90;100427.95;1683865;83;21610;-92
2022/05/24 10:45:09;;;;;;;6.00;3.58;;;;;;;21.50;39.31;100432.52;1670824;84;21577;-92
2022/05/24 10:47:48;;;;;;;6.90;4.35;;;;;;;21.26;37.61;100431.13;1683979;84;21062;-92
2022/05/24 10:50:41;;;;;;;5.05;4.00;;;;;;;21.08;39.52;100432.87;1676058;85;21079;-92
2022/05/24 10:53:18;;;;;;;6.08;4.25;;;;;;;21.02;40.09;100438.44;1680944;84;21329;-93
2022/05/24 10:55:57;;;;;;;4.55;4.00;;;;;;;20.83;40.12;100429.27;1658300;85;21598;-93
2022/05/24 10:58:25;;;;;;;6.12;3.62;;;;;;;20.59;38.25;100435.70;1634232;85;21095;-93
2022/05/24 11:01:27;;;;;;;5.28;3.65;;;;;;;20.47;40.34;100436.16;1622017;86;21074;-92
2022/05/24 11:04:00;;;;;;;3.50;3.20;;;;;;;20.34;40.91;100442.61;1654864;86;25620;-91
2022/05/24 11:06:41;;;;;;;6.05;3.20;;;;;;;20.07;42.16;100440.13;1635062;87;21570;-92
2022/05/24 11:09:21;;;;;;;6.67;3.60;;;;;;;19.85;40.01;100437.39;1648802;85;21109;-91
2022/05/24 11:12:06;;;;;;;3.63;3.10;;;;;;;19.66;43.85;100440.02;1633178;87;21345;-91
2022/05/24 11:15:00;;;;;;;7.03;3.00;;;;;;;19.50;41.81;100437.84;1638062;85;21069;-91
2022/05/24 11:17:28;;;;;;;3.85;3.17;;;;;;;19.43;45.38;100431.61;1627032;86;21118;-92
2022/05/24 11:19:57;;;;;;;3.33;2.87;;;;;;;19.40;42.56;100430.67;1683255;84;21334;-91
2022/05/24 11:22:48;;;;;;;2.92;2.62;;;;;;;19.42;44.14;100432.64;1689311;84;21708;-91
2022/05/24 11:25:33;;;;;;;4.05;2.70;;;;;;;19.54;45.85;100427.23;1668814;84;21179;-91
2022/05/24 11:28:07;;;;;;;2.70;2.50;;;;;;;19.70;43.19;100423.64;1680918;84;21053;-91
2022/05/24 11:30:40;;;;;;;3.02;2.72;;;;;;;19.71;41.70;100428.41;1674371;83;21109;-91
2022/05/24 11:33:12;;;;;;;4.58;2.90;;;;;;;19.71;44.00;100425.77;1687764;83;21113;-91
2022/05/24 11:35:50;;;;;;;3.80;2.72;;;;;;;19.97;41.93;100427.19;1690635;83;21055;-90
2022/05/24 11:38:30;;;;;;;3.70;3.20;;;;;;;20.27;40.36;100424.53;1661621;84;21292;-89
2022/05/24 11:41:12;;;;;;;3.35;2.30;;;;;;;20.56;40.00;100414.89;1675787;83;21078;-90
2022/05/24 11:43:46;;;;;;;2.92;2.47;;;;;;;20.70;38.67;100414.06;1672001;83;21586;-95
2022/05/24 11:46:41;;;;;;;4.95;2.80;;;;;;;20.68;40.57;100418.71;1681293;84;21069;-89
2022/05/24 11:49:24;;;;;;;3.60;2.42;;;;;;;20.72;40.37;100417.31;1680398;83;21080;-91
2022/05/24 11:52:03;;;;;;;3.77;2.42;;;;;;;20.91;41.92;100419.87;1645218;85;21183;-90
2022/05/24 11:54:49;;;;;;;3.15;2.70;;;;;;;21.14;42.24;100416.25;1668145;84;21137;-92
2022/05/24 11:57:22;;;;;;;2.83;2.45;;;;;;;21.37;42.62;100423.16;1677718;85;21598;-90
2022/05/24 11:59:52;;;;;;;2.90;2.60;;;;;;;21.51;39.13;100420.12;1679462;85;21424;-91
2022/05/24 12:02:32;;;;;;;;;;;;;;;21.35;37.26;100419.87;1684023;84;21622;-90
2022/05/24 12:08:33;;;;;;;2.80;2.60;;;;;;;20.68;42.14;100425.81;1661569;84;21532;-92
2022/05/24 12:11:16;;;;;;;3.17;2.80;;;;;;;20.43;40.30;100427.48;1605562;86;21127;-91
2022/05/24 12:13:59;;;;;;;3.45;3.08;;;;;;;20.28;41.54;100424.85;1633414;86;21090;-91
2022/05/24 12:16:49;;;;;;;3.95;3.20;;;;;;;20.25;40.79;100433.98;1672687;83;21574;-92
2022/05/24 12:19:41;;;;;;;5.08;2.77;;;;;;;20.38;42.13;100426.72;1654207;85;21419;-91
2022/05/24 12:22:14;;;;;;;3.12;2.85;;;;;;;20.72;45.00;100417.31;1676409;84;21552;-91
2022/05/24 12:24:52;;;;;;;3.05;2.72;;;;;;;21.14;40.73;100415.41;1662764;83;21095;-90
2022/05/24 12:27:44;;;;;;;3.12;2.70;;;;;;;21.42;38.49;100415.45;1681171;84;21117;-91
2022/05/24 12:30:36;;;;;;;6.08;2.83;;;;;;;21.57;39.69;100408.75;1681099;84;21591;-90
2022/05/24 12:33:26;;;;;;;2.70;2.50;;;;;;;21.58;37.71;100400.63;1670352;84;21587;-90
2022/05/24 12:36:10;;;;;;;4.72;2.83;;;;;;;21.70;37.59;100403.56;1655145;85;21034;-92
2022/05/24 12:38:39;;;;;;;4.70;2.77;;;;;;;21.82;41.25;100403.83;1675048;84;21030;-93
2022/05/24 13:37:24;;;;;;;3.02;2.67;;;;;;;20.59;38.30;100412.70;1834502;77;22257;-92